createdAt,value
2022-08-30T00:01:31.953Z,21.72
2022-08-30T00:04:18.031Z,21.79
2022-08-30T00:07:03.898Z,21.78
2022-08-30T00:09:50.718Z,21.75
2022-08-30T00:12:37.056Z,21.82
2022-08-30T00:15:24.081Z,21.85
2022-08-30T00:18:10.249Z,21.85
2022-08-30T00:20:56.736Z,21.81
2022-08-30T00:23:42.801Z,21.93
2022-08-30T00:26:29.005Z,21.94
2022-08-30T00:29:14.922Z,21.93
2022-08-30T00:32:02.497Z,21.94
2022-08-30T00:34:49.972Z,21.90
2022-08-30T00:37:36.184Z,21.91
2022-08-30T00:40:27.129Z,21.88
2022-08-30T00:43:27.757Z,21.88
2022-08-30T00:46:14.356Z,21.89
2022-08-30T00:49:03.625Z,21.56
2022-08-30T00:51:49.421Z,21.84
2022-08-30T00:54:36.774Z,21.76
2022-08-30T00:57:22.921Z,21.75
2022-08-30T01:00:09.745Z,21.74
2022-08-30T01:02:56.272Z,21.80
2022-08-30T01:05:42.657Z,21.77
2022-08-30T01:08:28.969Z,21.80
2022-08-30T01:11:18.172Z,21.77
2022-08-30T01:14:05.261Z,21.81
2022-08-30T01:16:51.201Z,21.78
2022-08-30T01:19:54.394Z,21.67
2022-08-30T01:22:49.571Z,21.70
2022-08-30T01:25:36.268Z,21.74
2022-08-30T01:28:26.172Z,21.61
2022-08-30T01:31:12.423Z,21.72
2022-08-30T01:33:58.616Z,21.66
2022-08-30T01:36:45.867Z,21.64
2022-08-30T01:39:32.040Z,21.64
2022-08-30T01:42:18.240Z,21.56
2022-08-30T01:45:05.488Z,21.55
2022-08-30T01:47:51.170Z,21.48
2022-08-30T01:50:37.947Z,21.54
2022-08-30T01:53:26.507Z,21.50
2022-08-30T01:56:13.313Z,21.42
2022-08-30T01:59:02.876Z,21.43
2022-08-30T02:01:49.190Z,21.53
2022-08-30T02:04:36.827Z,21.54
2022-08-30T02:07:24.029Z,21.47
2022-08-30T02:10:10.195Z,21.52
2022-08-30T02:12:56.491Z,21.58
2022-08-30T02:15:42.220Z,21.61
2022-08-30T02:18:28.252Z,21.69
2022-08-30T02:21:14.275Z,21.70
2022-08-30T02:24:00.398Z,21.71
2022-08-30T02:26:46.590Z,21.70
2022-08-30T02:29:32.759Z,21.70
2022-08-30T02:32:19.178Z,21.63
2022-08-30T02:35:05.741Z,21.65
2022-08-30T02:37:51.582Z,21.61
2022-08-30T02:40:39.184Z,21.60
2022-08-30T02:43:25.435Z,21.58
2022-08-30T02:46:11.547Z,21.58
2022-08-30T02:48:58.666Z,21.50
2022-08-30T02:51:46.524Z,21.49
2022-08-30T02:54:33.437Z,21.48
2022-08-30T02:57:20.458Z,20.85
2022-08-30T03:00:13.177Z,20.90
2022-08-30T03:02:59.132Z,21.12
2022-08-30T03:05:45.253Z,21.18
2022-08-30T03:08:31.895Z,20.88
2022-08-30T03:11:18.401Z,21.04
2022-08-30T03:14:04.710Z,21.08
2022-08-30T03:16:51.572Z,20.93
2022-08-30T03:19:38.171Z,21.05
2022-08-30T03:22:24.061Z,21.05
2022-08-30T03:25:10.290Z,20.94
2022-08-30T03:27:56.725Z,21.04
2022-08-30T03:30:42.754Z,21.09
2022-08-30T03:33:28.674Z,21.00
2022-08-30T03:36:14.936Z,21.08
2022-08-30T03:39:00.668Z,21.09
2022-08-30T03:41:46.676Z,21.07
2022-08-30T03:44:32.662Z,21.16
2022-08-30T03:47:18.624Z,21.12
2022-08-30T03:50:06.065Z,20.86
2022-08-30T03:52:52.260Z,20.92
2022-08-30T03:55:38.196Z,20.97
2022-08-30T03:58:24.478Z,20.99
2022-08-30T04:01:10.636Z,21.01
2022-08-30T04:03:56.713Z,21.00
2022-08-30T04:06:44.009Z,21.06
2022-08-30T04:09:29.845Z,21.07
2022-08-30T04:12:20.481Z,21.12
2022-08-30T04:15:11.276Z,21.07
2022-08-30T04:17:57.416Z,21.02
2022-08-30T04:20:43.730Z,21.06
2022-08-30T04:23:29.893Z,20.94
2022-08-30T04:26:15.876Z,21.09
2022-08-30T04:29:01.718Z,21.07
2022-08-30T04:31:47.630Z,21.10
2022-08-30T04:34:33.508Z,21.01
2022-08-30T04:37:19.233Z,21.13
2022-08-30T04:40:06.995Z,21.12
2022-08-30T04:42:54.542Z,20.93
2022-08-30T04:45:41.467Z,21.07
2022-08-30T04:48:27.761Z,20.85
2022-08-30T04:51:17.521Z,21.02
2022-08-30T04:54:03.400Z,20.87
2022-08-30T04:56:49.647Z,20.78
2022-08-30T04:59:35.928Z,20.92
2022-08-30T05:02:22.004Z,20.92
2022-08-30T05:05:28.714Z,20.96
2022-08-30T05:08:24.338Z,20.84
2022-08-30T05:11:10.804Z,20.88
2022-08-30T05:13:56.956Z,20.94
2022-08-30T05:16:43.145Z,20.95
2022-08-30T05:19:33.596Z,20.88
2022-08-30T05:22:19.698Z,20.95
2022-08-30T05:25:06.749Z,21.02
2022-08-30T05:27:53.496Z,21.10
2022-08-30T05:30:39.443Z,21.01
2022-08-30T05:33:25.735Z,21.01
2022-08-30T05:46:43.119Z,19.62
2022-08-30T05:49:29.117Z,19.86
2022-08-30T05:52:18.135Z,20.08
2022-08-30T05:55:05.794Z,20.24
2022-08-30T05:57:51.627Z,20.40
2022-08-30T06:00:38.088Z,20.40
2022-08-30T06:03:24.584Z,20.66
2022-08-30T06:06:13.004Z,20.83
2022-08-30T06:08:58.891Z,20.93
2022-08-30T06:11:45.492Z,21.09
2022-08-30T06:14:31.629Z,21.29
2022-08-30T06:17:17.581Z,21.35
2022-08-30T06:20:04.047Z,21.43
2022-08-30T06:22:50.068Z,21.47
2022-08-30T06:25:41.224Z,21.68
2022-08-30T06:28:28.217Z,21.72
2022-08-30T06:31:16.618Z,21.79
2022-08-30T06:34:02.690Z,21.79
2022-08-30T06:36:49.007Z,21.92
2022-08-30T06:39:36.411Z,22.05
2022-08-30T06:42:22.643Z,22.06
2022-08-30T06:45:10.763Z,22.10
2022-08-30T06:50:54.844Z,22.21
2022-08-30T06:53:41.216Z,22.29
2022-08-30T06:56:27.734Z,21.65
2022-08-30T08:07:42.046Z,21.72
2022-08-30T08:10:29.710Z,22.07
2022-08-30T08:13:16.095Z,22.41
2022-08-30T08:16:03.629Z,22.67
2022-08-30T08:18:49.925Z,22.79
2022-08-30T08:21:37.188Z,22.97
2022-08-30T08:24:23.960Z,23.17
2022-08-30T08:27:10.103Z,23.28
2022-08-30T08:29:55.956Z,23.38
2022-08-30T08:32:41.854Z,23.36
2022-08-30T08:35:27.990Z,23.44
2022-08-30T08:38:14.141Z,23.42
2022-08-30T08:41:29.723Z,23.67
2022-08-30T08:44:37.658Z,23.71
2022-08-30T08:47:37.983Z,23.78
2022-08-30T08:50:24.222Z,23.83
2022-08-30T08:53:46.193Z,24.05
2022-08-30T08:56:33.122Z,23.05
2022-08-30T08:59:19.278Z,23.91
2022-08-30T09:02:28.632Z,24.03
2022-08-30T09:05:19.676Z,24.23
2022-08-30T09:08:10.119Z,24.43
2022-08-30T11:25:09.809Z,24.69
2022-08-30T11:27:57.086Z,24.88
2022-08-30T11:30:42.802Z,25.16
2022-08-30T11:33:42.106Z,25.60
2022-08-30T11:36:43.734Z,25.92
2022-08-30T11:39:56.507Z,26.09
2022-08-30T11:42:45.851Z,26.41
2022-08-30T11:45:36.243Z,26.42
2022-08-30T11:49:10.065Z,26.62
2022-08-30T11:52:28.832Z,26.12
2022-08-30T11:55:41.398Z,26.80
2022-08-30T11:58:49.092Z,27.02
2022-08-30T12:01:51.210Z,27.08
2022-08-30T20:04:26.877Z,21.42
2022-08-30T20:07:13.780Z,21.67
2022-08-30T20:10:03.088Z,21.87
2022-08-30T20:12:50.284Z,21.98
2022-08-30T20:15:37.989Z,22.22
2022-08-30T20:18:27.548Z,22.31
2022-08-30T20:21:14.627Z,22.29
2022-08-30T20:24:01.267Z,22.46
2022-08-30T20:26:47.505Z,22.49
2022-08-30T20:29:34.707Z,22.57
2022-08-30T20:32:20.554Z,22.61
2022-08-30T20:35:08.175Z,22.66
2022-08-30T20:37:54.617Z,22.73
2022-08-30T20:40:41.565Z,22.75
2022-08-30T20:43:29.523Z,22.84
2022-08-30T20:46:17.988Z,22.71
2022-08-30T20:49:04.267Z,22.83
2022-08-30T20:51:54.345Z,22.87
2022-08-30T20:54:41.340Z,22.83
2022-08-30T20:57:27.295Z,22.88
2022-08-30T21:00:13.861Z,22.86
2022-08-30T21:02:59.931Z,22.89
2022-08-30T21:05:48.743Z,22.85
2022-08-30T21:08:35.008Z,22.82
2022-08-30T21:11:21.150Z,22.83
2022-08-30T21:14:07.665Z,22.69
2022-08-30T21:16:54.424Z,22.77
2022-08-30T21:19:43.999Z,22.78
2022-08-30T21:22:30.303Z,22.70
2022-08-30T21:25:16.579Z,22.77
2022-08-30T21:28:02.913Z,22.68
2022-08-30T21:30:49.174Z,22.78
2022-08-30T21:33:35.959Z,22.70
2022-08-30T21:36:41.910Z,22.73
2022-08-30T21:39:29.646Z,22.71
2022-08-30T21:42:15.522Z,22.72
2022-08-30T21:45:01.505Z,22.63
2022-08-30T21:47:47.561Z,22.67
2022-08-30T21:50:33.781Z,22.67
2022-08-30T21:53:20.001Z,22.69
2022-08-30T21:56:21.421Z,22.46
2022-08-30T21:59:08.682Z,22.66
2022-08-30T22:01:54.897Z,22.55
2022-08-30T22:04:41.472Z,22.55
2022-08-30T22:07:27.727Z,22.62
2022-08-30T22:10:14.124Z,22.61
2022-08-30T22:13:00.837Z,22.44
2022-08-30T22:15:46.625Z,22.60
2022-08-30T22:18:33.285Z,22.62
2022-08-30T22:21:22.824Z,22.49
2022-08-30T22:24:09.663Z,22.55
2022-08-30T22:26:55.643Z,22.42
2022-08-30T22:29:41.845Z,22.49
2022-08-30T22:32:27.789Z,22.43
2022-08-30T22:35:14.001Z,22.41
2022-08-30T22:38:00.534Z,22.42
2022-08-30T22:40:48.264Z,22.43
2022-08-30T22:43:34.510Z,22.37
2022-08-30T22:46:23.236Z,22.33
2022-08-30T22:49:20.508Z,22.38
2022-08-30T22:52:06.753Z,22.33
2022-08-30T22:54:52.825Z,22.35
2022-08-30T22:57:39.623Z,22.23
2022-08-30T23:00:25.532Z,22.21
2022-08-30T23:03:11.520Z,22.29
2022-08-30T23:05:57.750Z,22.21
2022-08-30T23:08:43.948Z,22.21
2022-08-30T23:11:30.626Z,22.20
2022-08-30T23:14:19.512Z,22.23
2022-08-30T23:17:05.467Z,22.18
2022-08-30T23:19:51.490Z,22.16
2022-08-30T23:22:37.781Z,21.90
2022-08-30T23:25:47.212Z,22.07
2022-08-30T23:28:56.088Z,22.00
2022-08-30T23:32:00.580Z,21.94
2022-08-30T23:35:05.762Z,21.97
2022-08-30T23:38:10.336Z,22.04
2022-08-30T23:41:15.144Z,21.93
2022-08-30T23:44:19.642Z,22.00
2022-08-30T23:47:24.230Z,22.01
2022-08-30T23:50:28.705Z,21.97
2022-08-30T23:53:34.017Z,21.91
2022-08-30T23:56:38.618Z,21.91
2022-08-30T23:59:43.531Z,21.53
